createdAt,value
2023-01-08T00:01:12.749Z,86.10
2023-01-08T00:03:40.218Z,86.20
2023-01-08T00:06:10.694Z,86.20
2023-01-08T00:08:37.523Z,86.30
2023-01-08T00:11:04.199Z,86.30
2023-01-08T00:13:30.771Z,86.10
2023-01-08T00:15:57.399Z,86.00
2023-01-08T00:18:26.576Z,86.20
2023-01-08T00:20:53.157Z,86.40
2023-01-08T00:23:20.542Z,86.50
2023-01-08T00:25:47.391Z,86.40
2023-01-08T00:28:16.935Z,86.40
2023-01-08T00:30:43.539Z,86.60
2023-01-08T00:33:11.396Z,86.50
2023-01-08T00:35:39.373Z,86.30
2023-01-08T00:38:06.244Z,85.90
2023-01-08T00:40:34.316Z,85.30
2023-01-08T00:43:01.276Z,84.70
2023-01-08T00:45:28.022Z,84.30
2023-01-08T00:47:54.577Z,83.90
2023-01-08T00:50:21.212Z,83.80
2023-01-08T00:52:47.755Z,83.70
2023-01-08T00:55:14.396Z,83.60
2023-01-08T00:57:40.994Z,83.60
2023-01-08T01:00:12.542Z,83.60
2023-01-08T01:02:40.264Z,83.60
2023-01-08T01:05:07.642Z,83.50
2023-01-08T01:07:34.657Z,83.60
2023-01-08T01:10:01.718Z,83.60
2023-01-08T01:12:28.443Z,83.50
2023-01-08T01:14:55.052Z,83.60
2023-01-08T01:17:21.625Z,83.50
2023-01-08T01:19:48.199Z,83.60
2023-01-08T01:22:14.790Z,83.60
2023-01-08T01:24:41.427Z,83.60
2023-01-08T01:27:08.064Z,83.60
2023-01-08T01:29:35.796Z,83.50
2023-01-08T01:32:02.384Z,83.40
2023-01-08T01:34:29.050Z,83.40
2023-01-08T01:36:55.611Z,83.30
2023-01-08T01:39:23.107Z,83.10
2023-01-08T01:41:49.990Z,83.20
2023-01-08T01:44:42.876Z,83.20
2023-01-08T01:47:29.783Z,83.10
2023-01-08T01:50:10.889Z,83.10
2023-01-08T01:52:42.913Z,83.00
2023-01-08T01:55:11.451Z,83.10
2023-01-08T01:57:39.213Z,83.10
2023-01-08T02:00:08.950Z,83.10
2023-01-08T02:02:35.632Z,83.10
2023-01-08T02:05:02.574Z,83.10
2023-01-08T02:08:07.725Z,83.10
2023-01-08T02:10:58.615Z,83.00
2023-01-08T02:13:33.859Z,83.10
2023-01-08T02:16:11.164Z,83.10
2023-01-08T02:18:48.554Z,82.90
2023-01-08T02:21:37.136Z,83.00
2023-01-08T02:24:07.968Z,83.00
2023-01-08T02:26:36.967Z,83.00
2023-01-08T02:29:08.767Z,82.90
2023-01-08T02:31:39.013Z,83.00
2023-01-08T02:34:05.753Z,82.80
2023-01-08T02:36:48.277Z,82.80
2023-01-08T02:39:37.786Z,82.90
2023-01-08T02:42:05.878Z,82.90
2023-01-08T02:45:06.630Z,82.90
2023-01-08T02:47:38.572Z,82.90
2023-01-08T02:50:23.380Z,83.00
2023-01-08T02:53:17.788Z,82.90
2023-01-08T02:55:51.771Z,83.00
2023-01-08T02:58:19.825Z,82.90
2023-01-08T03:00:47.961Z,82.80
2023-01-08T03:03:24.462Z,82.80
2023-01-08T03:06:01.494Z,82.80
2023-01-08T03:08:28.491Z,82.80
2023-01-08T03:11:05.046Z,82.90
2023-01-08T03:13:42.636Z,83.00
2023-01-08T03:16:15.051Z,83.00
2023-01-08T03:18:49.090Z,82.90
2023-01-08T03:21:18.516Z,82.90
2023-01-08T03:23:46.789Z,82.90
2023-01-08T03:26:18.740Z,82.90
2023-01-08T03:28:49.078Z,82.90
2023-01-08T03:31:17.677Z,82.80
2023-01-08T03:33:46.520Z,82.80
2023-01-08T03:36:18.133Z,82.80
2023-01-08T03:38:59.941Z,82.90
2023-01-08T03:41:30.727Z,82.90
2023-01-08T03:43:57.354Z,82.90
2023-01-08T03:46:37.541Z,82.80
2023-01-08T03:49:06.636Z,82.80
2023-01-08T03:51:53.488Z,82.80
2023-01-08T03:54:24.573Z,82.70
2023-01-08T03:56:51.418Z,82.70
2023-01-08T03:59:18.098Z,82.70
2023-01-08T04:01:44.831Z,82.70
2023-01-08T04:04:12.161Z,82.80
2023-01-08T04:06:38.960Z,82.80
2023-01-08T04:09:05.631Z,82.80
2023-01-08T04:11:32.824Z,82.70
2023-01-08T04:13:59.376Z,82.90
2023-01-08T04:16:26.206Z,82.80
2023-01-08T04:18:52.794Z,83.50
2023-01-08T04:21:19.572Z,82.80
2023-01-08T04:23:46.133Z,82.80
2023-01-08T04:26:12.698Z,82.80
2023-01-08T04:28:39.241Z,82.80
2023-01-08T04:31:10.109Z,82.90
2023-01-08T04:33:36.998Z,82.80
2023-01-08T04:36:05.100Z,82.80
2023-01-08T04:38:31.931Z,82.70
2023-01-08T04:41:02.353Z,82.80
2023-01-08T04:43:30.656Z,82.80
2023-01-08T04:46:01.839Z,82.70
2023-01-08T04:48:30.014Z,82.70
2023-01-08T04:51:00.062Z,82.80
2023-01-08T04:53:27.558Z,82.80
2023-01-08T04:55:54.514Z,82.80
2023-01-08T04:58:21.348Z,82.90
2023-01-08T05:00:47.930Z,82.90
2023-01-08T05:03:14.906Z,82.80
2023-01-08T05:05:41.517Z,82.70
2023-01-08T05:08:08.121Z,82.70
2023-01-08T05:10:34.804Z,82.80
2023-01-08T05:13:01.836Z,82.70
2023-01-08T05:15:28.769Z,82.70
2023-01-08T05:18:03.752Z,82.70
2023-01-08T05:20:31.560Z,82.80
2023-01-08T05:22:58.470Z,82.70
2023-01-08T05:25:25.470Z,82.70
2023-01-08T05:27:53.030Z,82.70
2023-01-08T05:30:19.694Z,82.90
2023-01-08T05:32:46.277Z,82.90
2023-01-08T05:35:12.864Z,82.80
2023-01-08T05:37:39.656Z,82.80
2023-01-08T05:40:06.601Z,82.80
2023-01-08T05:42:37.053Z,82.90
2023-01-08T05:45:04.820Z,82.90
2023-01-08T05:47:32.697Z,82.80
2023-01-08T05:49:59.428Z,82.70
2023-01-08T05:52:26.669Z,82.90
2023-01-08T05:54:53.293Z,82.70
2023-01-08T05:57:19.874Z,82.80
2023-01-08T05:59:46.488Z,82.90
2023-01-08T06:02:13.076Z,82.90
2023-01-08T06:04:39.709Z,82.90
2023-01-08T06:07:06.381Z,82.90
2023-01-08T06:09:32.993Z,82.90
2023-01-08T06:11:59.603Z,82.80
2023-01-08T06:14:26.261Z,82.80
2023-01-08T06:16:52.862Z,82.90
2023-01-08T06:19:19.613Z,82.90
2023-01-08T06:21:46.314Z,82.90
2023-01-08T06:24:12.882Z,83.00
2023-01-08T06:26:39.465Z,82.90
2023-01-08T06:29:06.163Z,82.90
2023-01-08T06:31:32.825Z,82.90
2023-01-08T06:33:59.484Z,82.90
2023-01-08T06:36:26.096Z,82.80
2023-01-08T06:38:52.716Z,82.80
2023-01-08T06:41:19.352Z,82.90
2023-01-08T06:43:45.921Z,83.10
2023-01-08T06:46:12.732Z,83.10
2023-01-08T06:48:39.305Z,83.00
2023-01-08T06:51:06.417Z,82.90
2023-01-08T06:53:33.491Z,83.00
2023-01-08T06:56:00.212Z,82.90
2023-01-08T06:58:27.780Z,82.90
2023-01-08T07:00:54.436Z,82.90
2023-01-08T07:03:21.230Z,83.00
2023-01-08T07:05:50.561Z,82.90
2023-01-08T07:08:17.895Z,83.00
2023-01-08T07:10:44.905Z,83.00
2023-01-08T07:13:12.727Z,82.80
2023-01-08T07:15:40.616Z,82.90
2023-01-08T07:18:08.531Z,83.00
2023-01-08T07:20:35.833Z,82.90
2023-01-08T07:23:03.751Z,82.90
2023-01-08T07:25:31.212Z,82.90
2023-01-08T07:27:58.681Z,83.00
2023-01-08T07:30:30.324Z,75.10
2023-01-08T07:33:01.384Z,71.50
2023-01-08T07:35:28.724Z,78.10
2023-01-08T07:37:55.649Z,82.90
2023-01-08T07:40:22.456Z,83.40
2023-01-08T07:42:49.197Z,83.70
2023-01-08T07:45:15.844Z,62.50
2023-01-08T07:47:42.417Z,63.60
2023-01-08T07:50:09.554Z,70.70
2023-01-08T07:52:36.155Z,59.40
2023-01-08T07:55:02.842Z,59.30
2023-01-08T07:57:30.057Z,59.30
2023-01-08T07:59:56.650Z,59.30
2023-01-08T08:02:23.423Z,59.40
2023-01-08T08:04:50.185Z,59.40
2023-01-08T08:07:16.792Z,59.40
2023-01-08T08:09:43.385Z,59.60
2023-01-08T08:12:10.025Z,59.70
2023-01-08T08:14:36.700Z,59.80
2023-01-08T08:17:03.335Z,60.00
2023-01-08T08:19:29.967Z,59.80
2023-01-08T08:21:56.570Z,59.70
2023-01-08T08:24:23.154Z,59.60
2023-01-08T08:26:50.663Z,59.60
2023-01-08T08:29:17.297Z,59.60
2023-01-08T08:31:43.980Z,59.60
2023-01-08T08:34:10.697Z,59.70
2023-01-08T08:36:37.281Z,59.60
2023-01-08T08:39:04.536Z,59.70
2023-01-08T08:41:31.145Z,59.70
2023-01-08T08:43:57.723Z,59.70
2023-01-08T08:46:25.474Z,59.70
2023-01-08T08:48:52.210Z,59.70
2023-01-08T08:51:18.793Z,59.70
2023-01-08T08:53:45.353Z,59.70
2023-01-08T08:56:11.987Z,59.70
2023-01-08T08:58:39.068Z,59.70
2023-01-08T09:01:05.757Z,59.70
2023-01-08T09:03:32.474Z,59.70
2023-01-08T09:05:59.988Z,59.70
2023-01-08T09:08:26.973Z,59.80
2023-01-08T09:10:53.671Z,59.80
2023-01-08T09:13:20.290Z,59.80
2023-01-08T09:15:47.031Z,60.40
2023-01-08T09:18:15.881Z,59.80
2023-01-08T09:20:42.708Z,59.80
2023-01-08T09:23:09.771Z,59.70
2023-01-08T09:25:36.406Z,59.80
2023-01-08T09:28:06.009Z,59.70
2023-01-08T09:30:33.405Z,59.80
2023-01-08T09:33:02.735Z,59.90
2023-01-08T09:35:30.567Z,59.90
2023-01-08T09:37:57.389Z,60.00
2023-01-08T09:40:31.363Z,60.10
2023-01-08T09:43:01.317Z,60.00
2023-01-08T09:45:31.069Z,59.90
2023-01-08T09:48:02.035Z,59.90
2023-01-08T09:50:30.422Z,59.80
2023-01-08T09:52:57.100Z,59.90
2023-01-08T09:55:23.745Z,59.90
2023-01-08T09:57:50.694Z,59.90
2023-01-08T10:00:30.221Z,59.90
2023-01-08T10:02:57.891Z,59.80
2023-01-08T10:05:28.079Z,59.90
2023-01-08T10:07:54.686Z,59.90
2023-01-08T10:10:30.993Z,60.00
2023-01-08T10:12:58.541Z,59.90
2023-01-08T10:15:25.533Z,58.60
2023-01-08T10:18:02.268Z,58.10
2023-01-08T10:20:29.566Z,58.60
2023-01-08T10:22:56.988Z,59.30
2023-01-08T10:25:26.223Z,59.20
2023-01-08T10:28:00.606Z,59.30
2023-01-08T10:30:32.979Z,59.40
2023-01-08T10:33:10.829Z,59.40
2023-01-08T10:35:42.540Z,59.50
2023-01-08T10:38:38.008Z,59.50
2023-01-08T10:41:12.245Z,59.50
2023-01-08T10:43:54.143Z,59.60
2023-01-08T10:46:24.683Z,59.50
2023-01-08T10:48:55.302Z,59.60
2023-01-08T10:51:24.447Z,59.60
2023-01-08T10:53:52.323Z,59.70
2023-01-08T10:56:22.701Z,59.60
2023-01-08T10:58:50.242Z,59.70
2023-01-08T11:01:28.911Z,59.70
2023-01-08T11:04:05.220Z,59.60
2023-01-08T11:06:35.912Z,59.40
2023-01-08T11:09:13.889Z,59.10
2023-01-08T11:11:40.473Z,59.00
2023-01-08T11:14:19.935Z,58.20
2023-01-08T11:16:46.922Z,56.10
2023-01-08T11:19:19.301Z,57.40
2023-01-08T11:22:00.943Z,58.30
2023-01-08T11:24:39.046Z,58.70
2023-01-08T11:27:22.795Z,58.70
2023-01-08T11:29:55.284Z,58.70
2023-01-08T11:32:31.260Z,58.70
2023-01-08T11:35:04.811Z,58.70
2023-01-08T11:37:38.762Z,58.70
2023-01-08T11:40:15.233Z,58.70
2023-01-08T11:43:00.214Z,58.70
2023-01-08T11:45:48.126Z,58.70
2023-01-08T11:48:33.617Z,58.70
2023-01-08T11:51:18.742Z,58.80
2023-01-08T11:53:57.176Z,58.70
2023-01-08T11:56:51.525Z,58.80
2023-01-08T11:59:24.335Z,58.80
2023-01-08T12:02:17.171Z,58.80
2023-01-08T12:04:57.321Z,58.80
2023-01-08T12:07:50.181Z,58.80
2023-01-08T12:10:54.270Z,58.80
2023-01-08T12:13:52.495Z,58.80
2023-01-08T12:16:54.313Z,58.80
2023-01-08T12:19:42.398Z,58.90
2023-01-08T12:22:37.569Z,58.90
2023-01-08T12:25:26.479Z,58.90
2023-01-08T12:28:25.442Z,59.00
2023-01-08T12:31:04.213Z,58.90
2023-01-08T12:33:37.397Z,59.00
2023-01-08T12:36:10.579Z,59.00
2023-01-08T12:38:43.292Z,59.10
2023-01-08T12:41:16.167Z,59.00
2023-01-08T12:44:00.460Z,59.10
2023-01-08T12:46:31.355Z,59.10
2023-01-08T12:48:58.376Z,59.00
2023-01-08T12:52:01.557Z,59.10
2023-01-08T12:54:42.680Z,59.10
2023-01-08T12:57:22.111Z,59.40
2023-01-08T12:59:57.482Z,59.10
2023-01-08T13:02:57.629Z,59.20
2023-01-08T13:05:24.202Z,59.10
2023-01-08T13:07:58.257Z,59.10
2023-01-08T13:10:36.123Z,59.10
2023-01-08T13:13:04.222Z,59.20
2023-01-08T13:15:31.866Z,59.20
2023-01-08T13:18:15.205Z,59.20
2023-01-08T13:20:42.114Z,59.20
2023-01-08T13:23:25.613Z,59.30
2023-01-08T13:25:54.738Z,59.20
2023-01-08T13:28:24.379Z,59.20
2023-01-08T13:30:51.518Z,59.20
2023-01-08T13:33:39.462Z,59.20
2023-01-08T13:36:15.555Z,59.20
2023-01-08T13:38:43.459Z,59.20
2023-01-08T13:41:34.116Z,59.20
2023-01-08T13:44:17.627Z,59.20
2023-01-08T13:46:54.224Z,59.30
2023-01-08T13:49:33.842Z,59.40
2023-01-08T13:52:00.634Z,59.30
2023-01-08T13:54:40.142Z,59.30
2023-01-08T13:57:15.972Z,59.40
2023-01-08T13:59:57.826Z,59.30
2023-01-08T14:02:50.095Z,59.30
2023-01-08T14:05:21.057Z,59.30
2023-01-08T14:07:47.689Z,59.30
2023-01-08T14:10:15.948Z,59.30
2023-01-08T14:12:42.867Z,59.40
2023-01-08T14:15:17.491Z,59.40
2023-01-08T14:17:44.903Z,59.40
2023-01-08T14:20:12.959Z,59.40
2023-01-08T14:22:41.901Z,59.40
2023-01-08T14:25:14.039Z,59.60
2023-01-08T14:27:40.551Z,51.30
2023-01-08T14:30:17.311Z,51.50
2023-01-08T14:32:45.202Z,54.10
2023-01-08T14:35:16.746Z,54.50
2023-01-08T14:37:43.517Z,56.80
2023-01-08T14:40:17.744Z,57.40
2023-01-08T14:42:47.110Z,57.40
2023-01-08T14:45:29.266Z,57.80
2023-01-08T14:48:08.244Z,56.60
2023-01-08T14:50:40.607Z,56.30
2023-01-08T14:53:08.776Z,56.90
2023-01-08T14:55:41.919Z,57.40
2023-01-08T14:58:20.256Z,56.90
2023-01-08T15:01:02.160Z,52.00
2023-01-08T15:03:32.231Z,51.60
2023-01-08T15:05:58.905Z,52.80
2023-01-08T15:08:38.208Z,53.40
2023-01-08T15:11:20.810Z,53.20
2023-01-08T15:13:49.417Z,53.10
2023-01-08T15:16:34.815Z,53.40
2023-01-08T15:19:04.394Z,53.40
2023-01-08T15:21:31.488Z,53.40
2023-01-08T15:23:59.631Z,53.50
2023-01-08T15:26:26.581Z,53.40
2023-01-08T15:28:57.002Z,53.80
2023-01-08T15:31:29.041Z,54.30
2023-01-08T15:33:56.073Z,54.60
2023-01-08T15:36:22.784Z,53.70
2023-01-08T15:38:50.409Z,53.70
2023-01-08T15:41:48.315Z,53.50
2023-01-08T15:44:15.261Z,54.20
2023-01-08T15:46:41.899Z,53.40
2023-01-08T15:49:08.543Z,58.80
2023-01-08T15:51:43.940Z,53.40
2023-01-08T15:54:12.998Z,53.20
2023-01-08T15:56:39.945Z,53.60
2023-01-08T15:59:06.560Z,53.60
2023-01-08T16:01:33.713Z,53.60
2023-01-08T16:04:00.579Z,53.80
2023-01-08T16:06:27.167Z,54.40
2023-01-08T16:08:53.759Z,51.70
2023-01-08T16:11:20.363Z,50.90
2023-01-08T16:13:47.063Z,49.90
2023-01-08T16:16:15.295Z,50.30
2023-01-08T16:18:42.201Z,50.00
2023-01-08T16:21:10.510Z,50.10
2023-01-08T16:23:38.665Z,50.10
2023-01-08T16:26:10.712Z,50.10
2023-01-08T16:28:37.214Z,50.00
2023-01-08T16:31:04.289Z,50.10
2023-01-08T16:33:31.134Z,50.20
2023-01-08T16:36:04.395Z,50.60
2023-01-08T16:38:33.427Z,50.40
2023-01-08T16:41:00.261Z,50.90
2023-01-08T16:43:30.029Z,51.00
2023-01-08T16:45:56.826Z,51.30
2023-01-08T16:48:23.528Z,51.30
2023-01-08T16:50:50.188Z,51.60
2023-01-08T16:53:21.806Z,51.90
2023-01-08T16:55:48.443Z,52.10
2023-01-08T16:58:15.029Z,52.50
2023-01-08T17:00:41.705Z,52.70
2023-01-08T17:03:08.299Z,52.90
2023-01-08T17:05:36.685Z,52.90
2023-01-08T17:08:03.362Z,53.20
2023-01-08T17:10:30.009Z,53.30
2023-01-08T17:12:56.651Z,53.50
2023-01-08T17:15:23.311Z,53.60
2023-01-08T17:17:49.899Z,53.70
2023-01-08T17:20:19.560Z,53.90
2023-01-08T17:22:46.823Z,53.90
2023-01-08T17:25:13.525Z,54.00
2023-01-08T17:27:41.596Z,54.10
2023-01-08T17:30:10.499Z,54.20
2023-01-08T17:32:37.168Z,54.40
2023-01-08T17:35:04.654Z,54.50
2023-01-08T17:37:31.910Z,54.50
2023-01-08T17:39:59.915Z,54.70
2023-01-08T17:42:28.129Z,54.70
2023-01-08T17:44:57.052Z,54.80
2023-01-08T17:47:25.586Z,54.80
2023-01-08T17:49:53.694Z,55.60
2023-01-08T17:52:21.796Z,55.00
2023-01-08T17:54:49.460Z,55.10
2023-01-08T17:57:17.458Z,55.20
2023-01-08T17:59:47.517Z,55.30
2023-01-08T18:02:16.663Z,55.30
2023-01-08T18:04:45.440Z,55.40
2023-01-08T18:07:12.719Z,55.40
2023-01-08T18:09:39.342Z,55.50
2023-01-08T18:12:06.375Z,55.50
2023-01-08T18:14:35.994Z,55.70
2023-01-08T18:17:02.835Z,55.60
2023-01-08T18:19:29.435Z,55.50
2023-01-08T18:21:56.089Z,55.50
2023-01-08T18:24:22.757Z,55.40
2023-01-08T18:26:50.351Z,55.00
2023-01-08T18:29:17.065Z,54.80
2023-01-08T18:31:46.028Z,55.00
2023-01-08T18:34:14.863Z,55.10
2023-01-08T18:36:41.648Z,54.70
2023-01-08T18:39:08.391Z,54.50
2023-01-08T18:41:53.808Z,55.10
2023-01-08T18:44:20.476Z,55.10
2023-01-08T18:46:48.263Z,55.80
2023-01-08T18:49:15.697Z,55.40
2023-01-08T18:51:42.719Z,55.70
2023-01-08T18:54:11.120Z,56.70
2023-01-08T18:56:38.339Z,56.30
2023-01-08T18:59:06.100Z,56.40
2023-01-08T19:01:34.950Z,56.40
2023-01-08T19:04:02.296Z,60.70
2023-01-08T19:06:29.366Z,60.20
2023-01-08T19:08:58.565Z,60.40
2023-01-08T19:11:25.685Z,60.50
2023-01-08T19:13:57.034Z,60.40
2023-01-08T19:16:23.962Z,61.10
2023-01-08T19:18:50.712Z,61.20
2023-01-08T19:21:19.300Z,60.70
2023-01-08T19:23:47.507Z,61.20
2023-01-08T19:26:14.797Z,61.60
2023-01-08T19:28:43.051Z,60.90
2023-01-08T19:31:13.398Z,60.50
2023-01-08T19:33:40.529Z,61.00
2023-01-08T19:36:12.358Z,60.60
2023-01-08T19:38:40.061Z,60.80
2023-01-08T19:41:30.542Z,60.90
2023-01-08T19:43:58.117Z,60.70
2023-01-08T19:46:25.229Z,61.50
2023-01-08T19:48:52.385Z,61.40
2023-01-08T19:51:19.023Z,61.10
2023-01-08T19:53:45.889Z,60.80
2023-01-08T19:56:14.189Z,60.60
2023-01-08T19:58:40.926Z,60.60
2023-01-08T20:01:16.467Z,60.60
2023-01-08T20:03:43.305Z,60.60
2023-01-08T20:06:17.256Z,60.60
2023-01-08T20:08:46.131Z,60.60
2023-01-08T20:11:14.952Z,60.60
2023-01-08T20:13:42.162Z,60.20
2023-01-08T20:16:13.707Z,61.10
2023-01-08T20:18:40.698Z,60.40
2023-01-08T20:21:21.639Z,60.50
2023-01-08T20:23:48.776Z,60.40
2023-01-08T20:26:18.271Z,60.60
2023-01-08T20:28:46.102Z,60.70
2023-01-08T20:31:15.478Z,60.70
2023-01-08T20:33:43.904Z,61.30
2023-01-08T20:36:16.564Z,61.40
2023-01-08T20:38:43.605Z,61.10
2023-01-08T20:41:11.662Z,61.40
2023-01-08T20:43:39.590Z,61.20
2023-01-08T20:46:09.707Z,61.40
2023-01-08T20:48:42.902Z,61.50
2023-01-08T20:51:13.467Z,62.00
2023-01-08T20:53:45.305Z,62.40
2023-01-08T20:56:14.453Z,62.70
2023-01-08T20:58:45.151Z,63.00
2023-01-08T21:01:22.809Z,63.70
2023-01-08T21:03:53.005Z,63.00
2023-01-08T21:06:22.766Z,63.00
2023-01-08T21:08:53.104Z,63.00
2023-01-08T21:11:20.575Z,63.40
2023-01-08T21:13:47.634Z,63.30
2023-01-08T21:16:22.064Z,63.40
2023-01-08T21:18:49.956Z,63.20
2023-01-08T21:21:26.824Z,63.40
2023-01-08T21:23:53.449Z,62.90
2023-01-08T21:26:20.274Z,63.10
2023-01-08T21:28:49.583Z,63.30
2023-01-08T21:31:22.206Z,62.60
2023-01-08T21:33:49.871Z,61.10
2023-01-08T21:36:21.979Z,61.10
2023-01-08T21:38:48.866Z,60.90
2023-01-08T21:41:37.260Z,60.50
2023-01-08T21:44:24.739Z,60.60
2023-01-08T21:46:51.398Z,60.50
2023-01-08T21:49:18.012Z,60.90
2023-01-08T21:52:03.563Z,60.90
2023-01-08T21:54:30.234Z,60.80
2023-01-08T21:56:56.870Z,60.80
2023-01-08T21:59:23.541Z,60.70
2023-01-08T22:01:50.254Z,60.70
2023-01-08T22:04:16.881Z,62.90
2023-01-08T22:06:43.529Z,61.70
2023-01-08T22:09:10.358Z,60.80
2023-01-08T22:11:37.012Z,60.80
2023-01-08T22:14:03.783Z,60.80
2023-01-08T22:16:30.491Z,60.60
2023-01-08T22:18:57.249Z,60.70
2023-01-08T22:21:23.901Z,60.70
2023-01-08T22:23:50.536Z,60.80
2023-01-08T22:26:17.334Z,60.80
2023-01-08T22:28:43.921Z,60.90
2023-01-08T22:31:13.046Z,61.00
2023-01-08T22:33:39.944Z,61.10
2023-01-08T22:36:09.315Z,61.30
2023-01-08T22:38:36.524Z,61.10
2023-01-08T22:41:03.602Z,61.30
2023-01-08T22:43:30.326Z,61.40
2023-01-08T22:45:59.687Z,61.30
2023-01-08T22:48:27.387Z,60.40
2023-01-08T22:50:54.415Z,60.90
2023-01-08T22:53:21.522Z,62.10
2023-01-08T22:55:48.417Z,62.70
2023-01-08T22:58:16.282Z,63.10
2023-01-08T23:00:43.987Z,63.20
2023-01-08T23:03:10.743Z,63.20
2023-01-08T23:05:37.640Z,63.20
2023-01-08T23:08:04.785Z,63.30
2023-01-08T23:10:31.621Z,63.30
2023-01-08T23:12:58.445Z,63.20
2023-01-08T23:15:25.074Z,63.20
2023-01-08T23:17:52.744Z,63.40
2023-01-08T23:20:20.732Z,63.30
2023-01-08T23:22:48.499Z,63.30
2023-01-08T23:25:16.151Z,63.30
2023-01-08T23:27:44.689Z,63.30
2023-01-08T23:30:12.116Z,63.30
2023-01-08T23:32:39.682Z,63.30
2023-01-08T23:35:06.634Z,63.30
2023-01-08T23:37:34.565Z,63.40
2023-01-08T23:40:01.174Z,63.50
2023-01-08T23:42:29.597Z,63.30
2023-01-08T23:44:56.692Z,63.30
2023-01-08T23:47:23.358Z,63.20
2023-01-08T23:49:49.961Z,63.20
2023-01-08T23:52:16.577Z,63.20
2023-01-08T23:54:43.168Z,63.20
2023-01-08T23:57:09.783Z,63.20
2023-01-08T23:59:36.406Z,63.20
